Latest Weather Observations for PORTABLE QFRJ (North Tamborine)

IDQ60801

Issued at 12:02 pm EST Friday 4 December 2020 (issued every 10 minutes, with the page automatically refreshed every 10 minutes)

About weather observations | Map of weather stations | Latest weather observations for QLD | Other Formats
Station Details ID: 250074 Name: NORTH TAMBORINE (QFRJ) Lat: -27.94 Lon: 153.19 Height: 527.0 m

Portable automatic weather stations (PAWS) are operated by other organisations, such as Fire and Emergency Services, and are included here by agreement. Portable stations may be deployed to a location for a short period and their location may be subject to change without notice. Wind observations from these stations are provided from heights of either three (3) or ten (10) metres above ground level (AGL).

Data from the previous 72 hours. | See also: Recent months for locations in Queensland
Date/Time
EST
Temp
°C
App
Temp
°C
Dew
Point
°C
Rel
Hum
%
Delta-T
°C
Wind Press
QNH
hPa
Press
MSL
hPa
Rain since
9am
mm
Dir  Spd
km/h
Gust
km/h
Spd
kts
Gust
kts
04/11:50am 25.6 25.9 19.6 69 4.0 W 17 20 9 11 - - 0.0
04/11:40am 25.3 25.6 19.5 70 3.8 W 17 20 9 11 - - 0.0
04/11:30am 24.8 24.8 19.7 73 3.4 WNW 19 22 10 12 - - 0.0
04/11:20am 24.6 25.1 20.1 76 3.0 W 17 22 9 12 - - 0.0
04/11:10am 24.7 24.9 20.1 75 3.0 WNW 19 20 10 11 - - 0.0
04/11:00am 24.2 24.4 20.1 78 2.7 W 19 22 10 12 - - 0.0
04/10:50am 24.0 24.0 20.1 79 2.6 W 20 22 11 12 - - 0.0
04/10:40am 23.6 23.9 20.5 83 2.1 W 19 20 10 11 - - 0.0
04/10:30am 23.5 24.4 20.8 85 1.8 WNW 17 22 9 12 - - 0.0
04/10:20am 23.2 23.5 20.5 85 1.8 WNW 19 22 10 12 - - 0.0
04/10:10am 23.1 23.4 20.4 85 1.8 W 19 20 10 11 - - 0.0
04/10:00am 23.1 23.2 20.3 84 1.8 WNW 20 28 11 15 - - 0.0
04/09:50am 23.3 23.4 20.3 83 2.0 WNW 20 24 11 13 - - 0.0
04/09:40am 22.7 22.6 20.0 85 1.8 WNW 20 22 11 12 - - 0.0
04/09:30am 22.7 23.2 20.0 85 1.8 NW 17 22 9 12 - - 0.0
04/09:20am 22.1 22.8 19.7 86 1.6 NW 15 20 8 11 - - 0.0
04/09:10am 21.5 21.9 19.9 91 1.0 WNW 17 20 9 11 - - 0.0
04/09:00am 21.3 21.9 20.2 93 0.7 WNW 17 22 9 12 - - 3.6
04/08:50am 20.8 21.3 20.0 95 0.5 WNW 17 19 9 10 - - 3.6
04/08:40am 20.3 20.7 19.8 97 0.3 WNW 17 20 9 11 - - 3.6
04/08:30am 20.0 20.7 19.7 98 0.2 NW 15 17 8 9 - - 3.6
04/08:20am 19.9 21.0 19.6 98 0.2 NW 13 17 7 9 - - 3.6
04/08:10am 19.8 20.8 19.5 98 0.2 NW 13 17 7 9 - - 3.6
04/08:00am 19.9 20.6 19.6 98 0.2 NW 15 17 8 9 - - 3.6
04/07:50am 19.9 21.0 19.6 98 0.2 NW 13 17 7 9 - - 3.6
04/07:40am 19.7 20.7 19.4 98 0.2 NNW 13 15 7 8 - - 3.6
04/07:30am 19.7 21.4 19.4 98 0.2 NNW 9 13 5 7 - - 3.6
04/07:20am 19.8 21.5 19.4 98 0.3 WNW 9 11 5 6 - - 3.6
04/07:10am 19.8 21.1 19.3 97 0.3 WNW 11 11 6 6 - - 3.6
04/07:00am 19.8 20.2 19.1 96 0.4 W 15 19 8 10 - - 3.6
04/06:50am 20.0 20.9 19.2 95 0.5 W 13 15 7 8 - - 3.6
04/06:40am 20.3 21.5 19.1 93 0.8 W 11 17 6 9 - - 3.6
04/06:30am 20.3 22.2 18.9 92 0.9 W 7 13 4 7 - - 3.6
04/06:20am 20.2 22.3 18.9 92 0.8 WNW 6 7 3 4 - - 3.6
04/06:10am 20.1 22.5 18.7 92 0.9 NW 4 9 2 5 - - 3.6
04/06:00am 19.9 21.3 18.6 92 0.8 WNW 9 17 5 9 - - 3.6
04/05:50am 19.9 20.8 18.3 90 1.0 E 11 15 6 8 - - 3.6
04/05:40am 20.0 20.0 18.2 89 1.1 E 15 17 8 9 - - 3.6
04/05:30am 20.1 19.7 18.0 88 1.3 SE 17 20 9 11 - - 3.4
04/05:20am 19.5 20.0 18.3 93 0.8 SSE 13 17 7 9 - - 3.2
04/05:10am 19.2 19.3 18.4 95 0.5 SSE 15 15 8 8 - - 3.2
04/05:00am 19.1 20.4 18.5 96 0.4 S 9 13 5 7 - - 3.2
04/04:50am 19.2 19.8 18.7 97 0.3 SSW 13 19 7 10 - - 3.0
04/04:40am 19.4 20.1 18.9 97 0.3 SW 13 19 7 10 - - 3.0
04/04:30am 19.8 21.5 19.3 97 0.3 W 9 11 5 6 - - 3.0
04/04:20am 19.8 22.0 19.2 96 0.4 W 6 9 3 5 - - 2.8
04/04:10am 19.8 22.4 19.2 96 0.4 W 4 6 2 3 - - 2.8
04/04:00am 19.9 22.9 19.3 96 0.4 W 2 4 1 2 - - 2.6
04/03:50am 19.9 23.2 19.2 96 0.5 CALM 0 2 0 1 - - 2.4
04/03:40am 19.9 23.2 19.2 96 0.5 CALM 0 2 0 1 - - 2.4
04/03:30am 19.8 23.1 19.0 95 0.5 CALM 0 0 0 0 - - 2.2
04/03:20am 19.8 22.7 19.0 95 0.5 E 2 4 1 2 - - 2.0
04/03:10am 19.8 22.2 18.9 94 0.6 E 4 6 2 3 - - 2.0
04/03:00am 19.8 21.9 18.9 94 0.6 E 6 7 3 4 - - 1.8
04/02:50am 19.9 22.7 18.9 94 0.6 ESE 2 4 1 2 - - 1.8
04/02:40am 19.9 22.7 18.9 94 0.6 WSW 2 4 1 2 - - 1.8
04/02:30am 20.1 22.5 18.8 92 0.8 W 4 6 2 3 - - 1.8
04/02:20am 20.2 22.6 18.7 91 1.0 WSW 4 6 2 3 - - 1.8
04/02:10am 20.4 22.7 18.6 89 1.1 SSW 4 6 2 3 - - 1.8
04/02:00am 20.5 22.9 18.7 89 1.2 SSE 4 6 2 3 - - 1.8
04/01:50am 20.4 22.3 18.5 89 1.2 SSE 6 7 3 4 - - 1.8
04/01:40am 20.3 22.0 18.4 89 1.2 SE 7 9 4 5 - - 1.8
04/01:30am 20.2 21.9 18.5 90 1.1 SE 7 9 4 5 - - 1.8
04/01:20am 20.0 21.8 18.8 93 0.8 SE 7 9 4 5 - - 1.8
04/01:10am 19.9 22.0 18.9 94 0.6 SSE 6 7 3 4 - - 1.8
04/01:00am 19.8 22.3 19.0 95 0.5 SE 4 6 2 3 - - 1.8
04/12:50am 19.6 21.7 19.0 96 0.4 SSE 6 6 3 3 - - 1.8
04/12:40am 19.4 21.9 19.0 98 0.3 SE 4 6 2 3 - - 1.8
04/12:30am 19.3 21.4 18.9 98 0.3 SE 6 6 3 3 - - 1.8
04/12:20am 19.1 21.1 18.8 98 0.2 SE 6 7 3 4 - - 1.8
04/12:10am 19.2 21.2 18.8 98 0.3 SSE 6 7 3 4 - - 1.8
04/12:00am 19.4 21.4 19.1 98 0.2 SSE 7 7 4 4 - - 1.8
 
Date/Time
EST
Temp
°C
App
Temp
°C
Dew
Point
°C
Rel
Hum
%
Delta-T
°C
Wind Press
QNH
hPa
Press
MSL
hPa
Rain since
9am
mm
Dir  Spd
km/h
Gust
km/h
Spd
kts
Gust
kts
03/11:50pm 19.6 22.2 19.2 98 0.3 SSE 4 7 2 4 - - 1.8
03/11:40pm 19.6 21.8 19.3 98 0.2 E 6 6 3 3 - - 1.8
03/11:30pm 19.6 21.8 19.3 98 0.2 ESE 6 6 3 3 - - 1.8
03/11:20pm 19.5 21.7 19.2 98 0.2 ESE 6 6 3 3 - - 1.8
03/11:10pm 19.5 22.4 19.1 98 0.3 ESE 2 4 1 2 - - 1.8
03/11:00pm 19.8 22.9 19.4 98 0.3 E 2 2 1 1 - - 1.8
03/10:50pm 19.8 22.9 19.4 98 0.3 E 2 4 1 2 - - 1.8
03/10:40pm 19.6 21.8 19.3 98 0.2 E 6 7 3 4 - - 1.8
03/10:30pm 19.3 21.7 18.9 98 0.3 ESE 4 7 2 4 - - 1.8
03/10:20pm 19.1 22.2 18.6 97 0.3 CALM 0 0 0 0 - - 1.8
03/10:10pm 19.4 22.2 18.9 97 0.3 SSE 2 4 1 2 - - 1.8
03/10:00pm 19.6 22.2 19.2 98 0.3 ESE 4 6 2 3 - - 1.8
03/09:50pm 19.6 22.2 19.2 98 0.3 ESE 4 6 2 3 - - 1.8
03/09:40pm 19.3 21.7 18.9 98 0.3 E 4 6 2 3 - - 1.8
03/09:30pm 19.2 22.0 18.8 98 0.3 ESE 2 4 1 2 - - 1.8
03/09:20pm 19.3 22.1 18.9 98 0.3 SSE 2 4 1 2 - - 1.8
03/09:10pm 19.5 22.4 19.0 97 0.3 SW 2 4 1 2 - - 1.8
03/09:00pm 19.7 22.3 19.3 98 0.3 SW 4 4 2 2 - - 1.8
03/08:50pm 20.0 23.5 19.5 97 0.3 CALM 0 2 0 1 - - 1.8
03/08:40pm 20.1 22.9 19.7 98 0.3 ESE 4 6 2 3 - - 1.8
03/08:30pm 20.1 22.5 19.6 97 0.3 E 6 7 3 4 - - 1.8
03/08:20pm 20.1 21.9 19.6 97 0.3 E 9 11 5 6 - - 1.8
03/08:10pm 20.3 22.6 19.8 97 0.3 E 7 9 4 5 - - 1.8
03/08:00pm 20.3 22.7 19.7 96 0.4 E 6 9 3 5 - - 1.8
03/07:50pm 20.3 22.5 19.7 96 0.4 E 7 9 4 5 - - 1.8
03/07:40pm 20.3 22.1 19.6 96 0.5 E 9 13 5 7 - - 1.8
03/07:30pm 20.3 21.7 19.6 96 0.5 E 11 15 6 8 - - 1.8
03/07:20pm 20.3 22.1 19.5 95 0.5 E 9 13 5 7 - - 1.8
03/07:10pm 20.4 22.2 19.5 95 0.6 E 9 11 5 6 - - 1.8
03/07:00pm 20.4 21.8 19.5 95 0.6 E 11 13 6 7 - - 1.8
03/06:50pm 20.5 21.9 19.5 94 0.6 E 11 13 6 7 - - 1.8
03/06:40pm 20.6 21.6 19.5 93 0.7 E 13 13 7 7 - - 1.8
03/06:30pm 20.7 22.1 19.6 93 0.7 E 11 15 6 8 - - 1.8
03/06:20pm 20.8 21.8 19.5 92 0.8 E 13 13 7 7 - - 1.8
03/06:10pm 20.8 21.4 19.5 92 0.8 E 15 17 8 9 - - 1.8
03/06:00pm 21.0 21.7 19.6 92 0.9 - 15 17 8 9 - - 1.8
03/05:50pm 21.2 22.6 19.6 90 1.0 E 11 13 6 7 - - 1.8
03/05:40pm 21.3 21.9 19.5 89 1.2 E 15 17 8 9 - - 1.8
03/05:30pm 21.6 22.6 19.4 87 1.4 E 13 15 7 8 - - 1.8
03/05:20pm 21.7 22.6 19.3 86 1.6 E 13 15 7 8 - - 1.8
03/05:10pm 21.8 23.1 19.3 86 1.6 E 11 13 6 7 - - 1.8
03/05:00pm 21.9 23.2 19.2 85 1.7 - 11 15 6 8 - - 1.8
03/04:50pm 22.1 23.4 19.3 84 1.8 - 11 15 6 8 - - 1.8
03/04:40pm 22.1 23.4 19.2 83 1.9 E 11 17 6 9 - - 1.8
03/04:30pm 22.3 24.0 19.4 83 1.9 E 9 13 5 7 - - 1.8
03/04:20pm 22.4 23.5 18.9 80 2.3 E 11 15 6 8 - - 1.8
03/04:10pm 22.5 24.0 18.8 79 2.4 E 9 11 5 6 - - 1.8
03/04:00pm 22.7 24.7 19.1 80 2.3 E 7 9 4 5 - - 1.8
03/03:50pm 22.7 24.8 19.0 79 2.4 ENE 6 7 3 4 - - 1.8
03/03:40pm 22.6 24.5 18.9 79 2.4 ENE 7 11 4 6 - - 1.8
03/03:30pm 22.5 24.0 19.0 80 2.3 E 9 11 5 6 - - 1.8
03/03:20pm 22.5 23.9 19.5 83 2.0 ENE 11 13 6 7 - - 1.8
03/03:10pm 22.5 24.3 19.6 84 1.9 ENE 9 11 5 6 - - 1.8
03/03:00pm 22.8 24.7 19.7 83 2.0 ENE 9 11 5 6 - - 1.8
03/02:50pm 22.8 24.6 19.6 82 2.1 ENE 9 11 5 6 - - 1.8
03/02:40pm 22.6 24.4 19.6 83 2.0 ENE 9 11 5 6 - - 1.8
03/02:30pm 22.4 24.3 19.8 85 1.7 E 9 11 5 6 - - 1.8
03/02:20pm 22.3 24.1 19.5 84 1.8 E 9 13 5 7 - - 1.8
03/02:10pm 22.4 24.2 19.5 84 1.9 E 9 13 5 7 - - 1.8
03/02:00pm 22.0 24.3 20.6 92 0.9 E 9 13 5 7 - - 1.8
03/01:50pm 21.7 24.2 21.1 96 0.4 ESE 9 13 5 7 - - 1.8
03/01:40pm 21.3 23.8 21.0 98 0.2 E 9 13 5 7 - - 1.8
03/01:30pm 21.4 24.4 21.2 99 0.1 E 7 11 4 6 - - 1.8
03/01:20pm 21.4 24.0 21.2 99 0.1 ENE 9 11 5 6 - - 1.8
03/01:10pm 21.5 24.2 21.3 99 0.1 E 9 13 5 7 - - 1.8
03/01:00pm 21.5 24.6 21.5 100 0.0 E 7 13 4 7 - - 1.8
03/12:50pm 21.2 23.7 21.1 99 0.1 ENE 9 13 5 7 - - 1.8
03/12:40pm 21.0 23.5 21.0 100 0.0 E 9 11 5 6 - - 1.8
03/12:30pm 20.8 23.6 20.8 100 0.0 E 7 9 4 5 - - 1.8
03/12:20pm 20.5 23.1 20.4 99 0.1 ENE 7 9 4 5 - - 1.8
03/12:10pm 20.5 23.1 20.4 99 0.1 ENE 7 9 4 5 - - 1.8
03/12:00pm 20.8 23.1 20.7 99 0.1 E 9 13 5 7 - - 1.8
03/11:50am 20.8 23.5 20.7 99 0.1 E 7 11 4 6 - - 1.8
03/11:40am 20.6 23.4 20.5 99 0.1 ENE 6 9 3 5 - - 1.8
03/11:30am 20.6 23.5 20.6 100 0.0 NE 6 7 3 4 - - 1.8
03/11:20am 20.5 22.7 20.5 100 0.0 ENE 9 15 5 8 - - 1.8
03/11:10am 20.6 22.5 20.6 100 0.0 E 11 17 6 9 - - 1.6
03/11:00am 21.0 23.9 21.0 100 0.0 E 7 11 4 6 - - 1.4
03/10:50am 20.9 23.9 20.8 99 0.1 ENE 6 9 3 5 - - 1.4
03/10:40am 20.7 23.4 20.6 99 0.1 ENE 7 11 4 6 - - 1.4
03/10:30am 20.5 23.1 20.4 99 0.1 ENE 7 11 4 6 - - 1.4
03/10:20am 20.6 22.8 20.5 99 0.1 ENE 9 13 5 7 - - 1.2
03/10:10am 20.8 23.2 20.8 100 0.0 E 9 11 5 6 - - 1.0
03/10:00am 20.7 23.4 20.6 99 0.1 ENE 7 11 4 6 - - 1.0
03/09:50am 20.6 23.3 20.6 100 0.0 E 7 9 4 5 - - 0.8
03/09:40am 20.6 22.5 20.5 99 0.1 E 11 15 6 8 - - 0.6
03/09:30am 20.7 23.0 20.7 100 0.0 E 9 13 5 7 - - 0.2
03/09:20am 20.9 23.7 20.8 99 0.1 E 7 9 4 5 - - 0.0
03/09:10am 20.7 23.4 20.6 99 0.1 ENE 7 9 4 5 - - 0.0
03/09:00am 20.6 23.2 20.5 99 0.1 ENE 7 9 4 5 - - 1.2
03/08:50am 20.6 22.8 20.5 99 0.1 E 9 11 5 6 - - 1.2
03/08:40am 20.6 22.8 20.5 99 0.1 E 9 9 5 5 - - 1.2
03/08:30am 20.5 22.7 20.5 100 0.0 E 9 15 5 8 - - 1.2
03/08:20am 20.6 23.4 20.5 99 0.1 E 6 9 3 5 - - 1.2
03/08:10am 20.5 23.1 20.4 99 0.1 ENE 7 9 4 5 - - 1.2
03/08:00am 20.6 23.2 20.5 99 0.1 E 7 11 4 6 - - 1.2
03/07:50am 20.6 23.4 20.5 99 0.1 E 6 7 3 4 - - 1.2
03/07:40am 20.5 22.7 20.4 99 0.1 ESE 9 9 5 5 - - 1.2
03/07:30am 20.5 23.1 20.4 99 0.1 E 7 9 4 5 - - 1.2
03/07:20am 20.4 22.6 20.3 99 0.1 ESE 9 9 5 5 - - 1.2
03/07:10am 20.3 22.4 20.2 99 0.1 ESE 9 11 5 6 - - 1.2
03/07:00am 20.3 22.8 20.2 99 0.1 E 7 9 4 5 - - 1.2
03/06:50am 20.2 22.8 20.1 99 0.1 E 6 9 3 5 - - 1.2
03/06:40am 20.2 22.8 20.1 99 0.1 ENE 6 9 3 5 - - 1.2
03/06:30am 20.2 22.8 20.0 99 0.1 ENE 6 9 3 5 - - 1.2
03/06:20am 20.2 22.6 20.0 99 0.1 E 7 9 4 5 - - 1.0
03/06:10am 20.2 22.6 20.0 99 0.1 E 7 11 4 6 - - 1.0
03/06:00am 20.3 22.4 20.1 99 0.1 E 9 15 5 8 - - 1.0
03/05:50am 20.6 23.8 20.4 99 0.1 E 4 7 2 4 - - 0.8
03/05:40am 20.5 23.6 20.3 99 0.1 ENE 4 7 2 4 - - 0.6
03/05:30am 20.5 22.7 20.3 99 0.1 ENE 9 13 5 7 - - 0.4
03/05:20am 20.5 23.2 20.3 99 0.1 ENE 6 9 3 5 - - 0.0
03/05:10am 20.5 23.0 20.3 99 0.1 ENE 7 11 4 6 - - 0.0
03/05:00am 20.5 23.0 20.2 98 0.2 ENE 7 11 4 6 - - 0.0
03/04:50am 20.5 23.2 20.2 98 0.2 NE 6 9 3 5 - - 0.0
03/04:40am 20.6 22.4 20.3 98 0.2 E 11 15 6 8 - - 0.0
03/04:30am 20.7 22.5 20.4 98 0.2 E 11 13 6 7 - - 0.0
03/04:20am 20.8 22.7 20.5 98 0.2 ENE 11 17 6 9 - - 0.0
03/04:10am 20.8 23.0 20.5 98 0.2 NE 9 20 5 11 - - 0.0
03/04:00am 20.8 24.0 20.5 98 0.2 ENE 4 6 2 3 - - 0.0
03/03:50am 20.8 23.4 20.5 98 0.2 E 7 13 4 7 - - 0.0
03/03:40am 20.8 24.0 20.5 98 0.2 ENE 4 7 2 4 - - 0.0
03/03:30am 20.7 23.9 20.4 98 0.2 NE 4 6 2 3 - - 0.0
03/03:20am 20.6 23.3 20.3 98 0.2 ENE 6 7 3 4 - - 0.0
03/03:10am 20.6 23.3 20.3 98 0.2 E 6 7 3 4 - - 0.0
03/03:00am 20.5 23.2 20.2 98 0.2 E 6 6 3 3 - - 0.0
03/02:50am 20.5 23.2 20.2 98 0.2 NE 6 9 3 5 - - 0.0
03/02:40am 20.5 23.6 20.3 99 0.1 NNE 4 6 2 3 - - 0.0
03/02:30am 20.4 23.5 20.2 99 0.1 NNE 4 6 2 3 - - 0.0
03/02:20am 20.4 23.8 20.1 98 0.2 N 2 4 1 2 - - 0.0
03/02:10am 20.4 23.5 20.2 99 0.1 WNW 4 6 2 3 - - 0.0
03/02:00am 20.5 24.0 20.3 99 0.1 W 2 6 1 3 - - 0.0
03/01:50am 20.6 24.5 20.4 99 0.1 CALM 0 2 0 1 - - 0.0
03/01:40am 20.6 24.5 20.4 99 0.1 CALM 0 0 0 0 - - 0.0
03/01:30am 20.7 24.6 20.4 98 0.2 CALM 0 0 0 0 - - 0.0
03/01:20am 20.8 24.8 20.5 98 0.2 CALM 0 0 0 0 - - 0.0
03/01:10am 20.8 24.8 20.5 98 0.2 CALM 0 0 0 0 - - 0.0
03/01:00am 20.8 24.8 20.5 98 0.2 CALM 0 0 0 0 - - 0.0
03/12:50am 20.9 24.9 20.6 98 0.2 CALM 0 4 0 2 - - 0.0
03/12:40am 20.9 24.5 20.6 98 0.2 NE 2 4 1 2 - - 0.0
03/12:30am 20.9 23.8 20.7 99 0.1 E 6 9 3 5 - - 0.0
03/12:20am 21.0 24.0 20.8 99 0.1 - 6 7 3 4 - - 0.0
03/12:10am 21.0 23.7 20.7 98 0.2 E 7 9 4 5 - - 0.0
03/12:00am 21.1 23.9 20.8 98 0.2 E 7 11 4 6 - - 0.0
 
Date/Time
EST
Temp
°C
App
Temp
°C
Dew
Point
°C
Rel
Hum
%
Delta-T
°C
Wind Press
QNH
hPa
Press
MSL
hPa
Rain since
9am
mm
Dir  Spd
km/h
Gust
km/h
Spd
kts
Gust
kts
02/11:50pm 21.1 23.1 20.8 98 0.2 E 11 17 6 9 - - 0.0
02/11:40pm 21.2 24.0 20.9 98 0.2 E 7 13 4 7 - - 0.0
02/11:30pm 21.2 23.6 20.8 98 0.3 E 9 11 5 6 - - 0.0
02/11:20pm 21.2 23.6 20.9 98 0.2 ESE 9 15 5 8 - - 0.0
02/11:10pm 21.3 24.1 20.9 98 0.3 ESE 7 11 4 6 - - 0.0
02/11:00pm 21.2 24.0 20.8 98 0.3 E 7 11 4 6 - - 0.0
02/10:50pm 21.2 23.2 20.8 98 0.3 ESE 11 19 6 10 - - 0.0
02/10:40pm 21.2 23.2 20.7 97 0.3 E 11 15 6 8 - - 0.0
02/10:30pm 21.2 23.2 20.8 98 0.3 E 11 15 6 8 - - 0.0
02/10:20pm 21.3 23.7 20.8 97 0.3 E 9 15 5 8 - - 0.0
02/10:10pm 21.3 22.9 20.7 96 0.4 E 13 15 7 8 - - 0.0
02/10:00pm 21.2 22.7 20.6 96 0.4 E 13 15 7 8 - - 0.0
02/09:50pm 21.3 23.2 20.6 96 0.5 E 11 13 6 7 - - 0.0
02/09:40pm 21.3 22.8 20.6 96 0.5 E 13 15 7 8 - - 0.0
02/09:30pm 21.5 23.5 20.8 96 0.5 E 11 13 6 7 - - 0.0
02/09:20pm 21.5 23.9 20.8 96 0.5 E 9 13 5 7 - - 0.0
02/09:10pm 21.6 24.0 20.9 96 0.5 SE 9 13 5 7 - - 0.0
02/09:00pm 21.7 24.2 21.0 96 0.5 ESE 9 11 5 6 - - 0.0
02/08:50pm 21.6 24.4 20.9 96 0.5 E 7 11 4 6 - - 0.0
02/08:40pm 21.6 24.0 20.9 96 0.5 E 9 13 5 7 - - 0.0
02/08:30pm 21.6 23.6 20.8 95 0.5 E 11 13 6 7 - - 0.0
02/08:20pm 21.7 23.0 20.9 95 0.5 E 15 19 8 10 - - 0.0
02/08:10pm 21.8 23.5 21.0 95 0.5 E 13 17 7 9 - - 0.0
02/08:00pm 21.9 22.9 21.0 95 0.6 E 17 19 9 10 - - 0.0
02/07:50pm 22.0 23.0 21.0 94 0.7 E 17 17 9 9 - - 0.0
02/07:40pm 22.1 23.4 20.9 93 0.8 E 15 19 8 10 - - 0.0
02/07:30pm 22.2 24.2 20.8 92 0.9 E 11 15 6 8 - - 0.0
02/07:20pm 22.3 24.6 20.6 90 1.1 E 9 13 5 7 - - 0.0
02/07:10pm 22.3 24.5 20.4 89 1.3 ENE 9 13 5 7 - - 0.0
02/07:00pm 22.5 25.0 20.3 87 1.5 E 7 9 4 5 - - 0.0
02/06:50pm 22.6 25.2 20.1 86 1.6 ENE 6 7 3 4 - - 0.0
02/06:40pm 22.6 25.0 20.1 86 1.6 ENE 7 11 4 6 - - 0.0
02/06:30pm 22.8 25.1 20.6 87 1.5 ENE 9 15 5 8 - - 0.0
02/06:20pm 23.1 24.2 20.4 85 1.8 E 15 17 8 9 - - 0.0
02/06:10pm 23.4 24.4 20.3 83 2.0 E 15 17 8 9 - - 0.0
02/06:00pm 23.8 25.3 19.7 78 2.7 E 11 13 6 7 - - 0.0
02/05:50pm 24.0 26.2 19.2 74 3.1 E 6 7 3 4 - - 0.0
02/05:40pm 24.1 26.3 19.2 74 3.2 NE 6 7 3 4 - - 0.0
02/05:30pm 24.1 26.3 19.1 73 3.3 NNW 6 9 3 5 - - 0.0
02/05:20pm 24.2 26.3 19.0 72 3.4 ENE 6 7 3 4 - - 0.0
02/05:10pm 24.3 25.8 18.9 72 3.5 ENE 9 13 5 7 - - 0.0
02/05:00pm 24.5 26.5 18.8 70 3.7 NNE 6 7 3 4 - - 0.0
02/04:50pm 24.6 27.0 18.8 70 3.8 NNE 4 6 2 3 - - 0.0
02/04:40pm 24.8 27.2 18.9 69 3.8 N 4 6 2 3 - - 0.0
02/04:30pm 24.9 27.5 19.3 71 3.7 N 4 7 2 4 - - 0.0
02/04:20pm 25.1 27.3 19.1 69 3.9 NNE 6 7 3 4 - - 0.0
02/04:10pm 25.2 27.6 18.9 68 4.1 N 4 7 2 4 - - 0.0
02/04:00pm 25.4 27.4 19.1 68 4.1 NNE 7 11 4 6 - - 0.0
02/03:50pm 26.0 28.0 19.2 66 4.5 NNE 7 11 4 6 - - 0.0
02/03:40pm 26.6 27.9 19.2 64 4.9 NE 11 15 6 8 - - 0.0
02/03:30pm 27.3 29.6 19.4 62 5.2 NE 6 9 3 5 - - 0.0
02/03:20pm 27.2 28.4 19.0 61 5.4 ENE 11 13 6 7 - - 0.0
02/03:10pm 27.4 29.4 19.1 60 5.5 NNE 7 13 4 7 - - 0.0
02/03:00pm 27.6 29.8 19.7 62 5.2 NNE 7 11 4 6 - - 0.0
02/02:50pm 27.5 28.8 19.3 61 5.4 ENE 11 15 6 8 - - 0.0
02/02:40pm 27.6 29.9 19.5 61 5.4 NNE 6 11 3 6 - - 0.0
02/02:30pm 27.3 28.5 19.1 61 5.4 NE 11 19 6 10 - - 0.0
02/02:20pm 27.4 28.6 19.1 60 5.5 ENE 11 17 6 9 - - 0.0
02/02:10pm 27.3 28.9 19.1 61 5.4 NNE 9 13 5 7 - - 0.0
02/02:00pm 27.5 28.7 19.0 59 5.6 NE 11 17 6 9 - - 0.0
02/01:50pm 27.7 29.7 19.2 60 5.6 NNE 7 9 4 5 - - 0.0
02/01:40pm 27.4 29.1 19.3 61 5.3 NE 9 20 5 11 - - 0.0
02/01:30pm 27.7 29.3 19.2 60 5.6 NE 9 11 5 6 - - 0.0
02/01:20pm 28.0 29.5 19.7 60 5.5 ENE 11 17 6 9 - - 0.0
02/01:10pm 28.3 30.8 19.9 60 5.6 NE 6 11 3 6 - - 0.0
02/01:00pm 27.9 29.1 19.8 61 5.4 E 13 19 7 10 - - 0.0
02/12:50pm 28.1 29.7 19.2 58 5.9 ENE 9 15 5 8 - - 0.0
02/12:40pm 27.8 28.8 19.5 60 5.5 ENE 13 19 7 10 - - 0.0
02/12:30pm 28.0 29.4 19.5 60 5.6 ENE 11 15 6 8 - - 0.0
02/12:20pm 27.8 29.3 19.8 61 5.3 ENE 11 17 6 9 - - 0.0
02/12:10pm 27.6 28.2 19.5 61 5.4 E 15 20 8 11 - - 0.0
02/12:00pm 27.7 29.8 20.1 63 5.1 NE 9 19 5 10 - - 0.0
02/11:50am 27.8 29.7 19.8 61 5.3 NE 9 11 5 6 - - 0.0
02/11:40am 27.5 29.6 20.1 64 4.9 NE 9 11 5 6 - - 0.0
02/11:30am 27.3 29.0 20.1 64 4.8 ENE 11 17 6 9 - - 0.0
02/11:20am 27.1 28.4 20.1 65 4.7 E 13 17 7 9 - - 0.0
02/11:10am 27.3 29.9 20.1 64 4.8 ENE 6 9 3 5 - - 0.0
02/11:00am 27.3 30.5 20.4 66 4.6 NE 4 7 2 4 - - 0.0
02/10:50am 27.5 30.0 20.3 65 4.8 E 7 13 4 7 - - 0.0
02/10:40am 27.3 29.3 20.0 64 4.9 E 9 13 5 7 - - 0.0
02/10:30am 27.2 28.7 20.5 67 4.5 ESE 13 17 7 9 - - 0.0
02/10:20am 27.2 29.4 20.5 67 4.5 E 9 15 5 8 - - 0.0
02/10:10am 27.5 29.9 20.1 64 4.9 E 7 11 4 6 - - 0.0
02/10:00am 27.1 29.7 20.0 65 4.7 ENE 6 11 3 6 - - 0.0
02/09:50am 26.9 29.3 20.0 66 4.6 ENE 7 9 4 5 - - 0.0
02/09:40am 26.9 29.4 19.8 65 4.7 E 6 11 3 6 - - 0.0
02/09:30am 26.7 28.9 19.7 65 4.6 E 7 13 4 7 - - 0.0
02/09:20am 26.7 29.2 19.8 66 4.6 NE 6 7 3 4 - - 0.0
02/09:10am 26.3 28.5 19.3 65 4.6 NE 6 9 3 5 - - 0.0
02/09:00am 26.0 28.2 19.5 67 4.3 E 7 11 4 6 - - 0.0
02/08:50am 26.2 28.2 19.2 65 4.6 E 7 11 4 6 - - 0.0
02/08:40am 26.2 28.1 18.9 64 4.8 ESE 7 11 4 6 - - 0.0
02/08:30am 25.8 28.5 19.4 67 4.2 - 4 9 2 5 - - 0.0
02/08:20am 25.1 27.7 19.2 70 3.9 WNW 4 6 2 3 - - 0.0
02/08:10am 24.8 27.2 18.9 69 3.8 N 4 7 2 4 - - 0.0
02/08:00am 24.4 26.5 18.9 71 3.6 N 6 7 3 4 - - 0.0
02/07:50am 24.3 26.0 18.0 68 4.0 N 6 9 3 5 - - 0.0
02/07:40am 23.9 26.1 18.4 71 3.5 N 4 7 2 4 - - 0.0
02/07:30am 23.7 25.8 18.1 71 3.6 N 4 6 2 3 - - 0.0
02/07:20am 23.3 25.4 18.1 72 3.3 N 4 6 2 3 - - 0.0
02/07:10am 22.8 25.1 17.8 73 3.2 S 2 4 1 2 - - 0.0
02/07:00am 22.2 24.3 18.2 78 2.6 NNW 4 6 2 3 - - 0.0
02/06:50am 22.0 24.4 17.9 77 2.6 NNW 2 7 1 4 - - 0.0
02/06:40am 21.8 23.6 18.4 81 2.2 N 6 7 3 4 - - 0.0
02/06:30am 21.8 24.4 18.4 81 2.2 N 2 6 1 3 - - 0.0
02/06:20am 21.6 23.4 18.3 81 2.1 N 6 7 3 4 - - 0.0
02/06:10am 21.5 23.7 18.3 82 2.0 NNW 4 7 2 4 - - 0.0
02/06:00am 21.5 23.2 18.1 81 2.2 N 6 7 3 4 - - 0.0
02/05:50am 21.4 23.4 17.9 80 2.2 N 4 6 2 3 - - 0.0
02/05:40am 21.1 23.4 17.8 81 2.1 WNW 2 6 1 3 - - 0.0
02/05:30am 20.8 21.7 17.6 82 2.0 NW 9 13 5 7 - - 0.0
02/05:20am 20.7 21.6 17.5 82 2.0 NNW 9 11 5 6 - - 0.0
02/05:10am 20.7 21.2 17.4 81 2.1 NNW 11 13 6 7 - - 0.0
02/05:00am 20.6 20.6 17.2 81 2.1 N 13 17 7 9 - - 0.0
02/04:50am 20.7 21.0 17.0 79 2.3 NNW 11 15 6 8 - - 0.0
02/04:40am 20.7 21.4 17.0 79 2.3 NW 9 11 5 6 - - 0.0
02/04:30am 20.6 21.7 17.0 80 2.2 NW 7 11 4 6 - - 0.0
02/04:20am 20.7 21.4 17.0 79 2.3 NNW 9 13 5 7 - - 0.0
02/04:10am 20.7 21.0 17.1 80 2.2 NNW 11 15 6 8 - - 0.0
02/04:00am 20.6 21.4 17.3 81 2.1 N 9 13 5 7 - - 0.0
02/03:50am 20.6 20.7 17.4 82 2.0 N 13 17 7 9 - - 0.0
02/03:40am 20.6 21.1 17.5 82 1.9 N 11 17 6 9 - - 0.0
02/03:30am 20.5 21.1 17.8 84 1.7 N 11 17 6 9 - - 0.0
02/03:20am 20.4 21.9 18.0 86 1.5 N 7 9 4 5 - - 0.0
02/03:10am 20.4 21.6 18.3 88 1.3 N 9 11 5 6 - - 0.0
02/03:00am 20.3 22.1 18.7 90 1.0 N 7 9 4 5 - - 0.0
02/02:50am 20.4 22.5 18.9 91 1.0 N 6 11 3 6 - - 0.0
02/02:40am 20.4 22.3 19.0 92 0.9 N 7 9 4 5 - - 0.0
02/02:30am 20.5 22.7 19.2 92 0.8 NNE 6 9 3 5 - - 0.0
02/02:20am 20.5 22.7 19.3 93 0.8 NNE 6 7 3 4 - - 0.0
02/02:10am 20.6 22.9 19.5 93 0.7 N 6 9 3 5 - - 0.0
02/02:00am 20.7 23.1 19.6 93 0.7 N 6 7 3 4 - - 0.0
02/01:50am 20.7 23.1 19.6 93 0.7 N 6 6 3 3 - - 0.0
02/01:40am 20.6 23.0 19.6 94 0.6 NNE 6 11 3 6 - - 0.0
02/01:30am 20.6 22.8 19.7 95 0.6 N 7 11 4 6 - - 0.0
02/01:20am 20.8 23.1 19.9 95 0.6 N 7 11 4 6 - - 0.0
02/01:10am 20.8 23.4 20.0 95 0.5 N 6 9 3 5 - - 0.0
02/01:00am 20.9 23.5 20.0 95 0.6 N 6 9 3 5 - - 0.0
02/12:50am 20.9 23.5 20.1 95 0.5 N 6 9 3 5 - - 0.0
02/12:40am 20.9 23.3 20.1 95 0.5 N 7 9 4 5 - - 0.0
02/12:30am 20.9 23.6 20.2 96 0.5 N 6 11 3 6 - - 0.0
02/12:20am 21.0 23.1 20.2 95 0.5 N 9 11 5 6 - - 0.0
02/12:10am 21.0 23.2 20.3 96 0.5 N 9 13 5 7 - - 0.0
02/12:00am 21.0 23.6 20.4 96 0.4 N 7 11 4 6 - - 0.0
 
Date/Time
EST
Temp
°C
App
Temp
°C
Dew
Point
°C
Rel
Hum
%
Delta-T
°C
Wind Press
QNH
hPa
Press
MSL
hPa
Rain since
9am
mm
Dir  Spd
km/h
Gust
km/h
Spd
kts
Gust
kts
01/11:50pm 21.1 23.9 20.5 96 0.4 N 6 9 3 5 - - 0.0
01/11:40pm 21.1 23.8 20.6 97 0.3 N 7 9 4 5 - - 0.0
01/11:30pm 21.1 23.8 20.6 97 0.3 NNE 7 11 4 6 - - 0.0
01/11:20pm 21.2 24.1 20.6 96 0.4 N 6 9 3 5 - - 0.0
01/11:10pm 21.2 24.1 20.6 96 0.4 NNE 6 9 3 5 - - 0.0
01/11:00pm 21.1 24.3 20.5 96 0.4 N 4 6 2 3 - - 0.0
01/10:50pm 21.1 23.9 20.5 96 0.4 N 6 11 3 6 - - 0.0
01/10:40pm 21.2 24.4 20.5 96 0.5 N 4 9 2 5 - - 0.0
01/10:30pm 21.3 24.2 20.6 96 0.5 N 6 7 3 4 - - 0.0
01/10:20pm 21.3 24.5 20.6 96 0.5 N 4 7 2 4 - - 0.0
01/10:10pm 21.3 24.2 20.6 96 0.5 NNE 6 7 3 4 - - 0.0
01/10:00pm 21.3 24.1 20.5 95 0.5 NNE 6 7 3 4 - - 0.0
01/09:50pm 21.3 24.4 20.3 94 0.7 NNE 4 6 2 3 - - 0.0
01/09:40pm 21.2 23.9 20.2 94 0.7 NNE 6 9 3 5 - - 0.0
01/09:30pm 21.2 23.8 20.0 93 0.8 NNE 6 7 3 4 - - 0.0
01/09:20pm 21.1 23.9 19.7 92 0.9 NNE 4 7 2 4 - - 0.0
01/09:10pm 21.2 23.6 19.6 90 1.0 NNE 6 9 3 5 - - 0.0
01/09:00pm 21.2 23.9 19.4 89 1.2 NNE 4 7 2 4 - - 0.0
01/08:50pm 21.3 23.5 19.1 87 1.4 NE 6 7 3 4 - - 0.0
01/08:40pm 21.3 23.4 19.0 87 1.5 NNE 6 9 3 5 - - 0.0
01/08:30pm 21.3 23.4 18.9 86 1.5 NNE 6 7 3 4 - - 0.0
01/08:20pm 21.3 23.8 19.0 87 1.5 NNE 4 7 2 4 - - 0.0
01/08:10pm 21.4 23.6 19.1 87 1.5 NNE 6 9 3 5 - - 0.0
01/08:00pm 21.4 24.0 19.2 87 1.4 NNE 4 7 2 4 - - 0.0
01/07:50pm 21.4 23.7 19.4 88 1.3 NNE 6 7 3 4 - - 0.0
01/07:40pm 21.4 24.2 19.7 90 1.1 NE 4 7 2 4 - - 0.0
01/07:30pm 21.3 24.3 20.1 93 0.8 NE 4 7 2 4 - - 0.0
01/07:20pm 21.4 24.5 20.3 93 0.7 ENE 4 6 2 3 - - 0.0
01/07:10pm 21.5 24.3 20.4 93 0.7 E 6 7 3 4 - - 0.0
01/07:00pm 21.6 24.4 20.4 93 0.8 E 6 7 3 4 - - 0.0
01/06:50pm 21.7 24.3 20.4 92 0.9 E 7 7 4 4 - - 0.0
01/06:40pm 21.8 24.4 20.4 92 0.9 E 7 9 4 5 - - 0.0
01/06:30pm 22.0 24.6 20.4 91 1.1 E 7 9 4 5 - - 0.0
01/06:20pm 22.2 24.8 20.4 89 1.2 E 7 9 4 5 - - 0.0
01/06:10pm 22.4 25.0 20.5 89 1.3 E 7 11 4 6 - - 0.0
01/06:00pm 22.6 24.8 20.5 88 1.4 E 9 13 5 7 - - 0.0
01/05:50pm 22.8 25.0 20.5 87 1.5 E 9 13 5 7 - - 0.0
01/05:40pm 22.9 24.8 20.5 86 1.6 E 11 13 6 7 - - 0.0
01/05:30pm 23.1 25.0 20.5 85 1.7 E 11 13 6 7 - - 0.0
01/05:20pm 23.2 25.1 20.5 85 1.8 E 11 15 6 8 - - 0.0
01/05:10pm 23.4 25.3 20.6 84 1.9 E 11 15 6 8 - - 0.0
01/05:00pm 23.6 24.8 20.6 83 2.0 E 15 17 8 9 - - 0.0
01/04:50pm 23.8 25.3 20.6 82 2.1 E 13 15 7 8 - - 0.0
01/04:40pm 24.2 25.7 20.6 80 2.4 E 13 13 7 7 - - 0.0
01/04:30pm 24.3 26.2 20.6 80 2.5 E 11 15 6 8 - - 0.0
01/04:20pm 24.6 26.5 20.5 78 2.7 ENE 11 13 6 7 - - 0.0
01/04:10pm 24.7 25.8 20.4 77 2.9 E 15 17 8 9 - - 0.0
01/04:00pm 25.2 26.5 20.2 74 3.3 E 13 17 7 9 - - 0.0
01/03:50pm 25.3 26.6 20.2 73 3.4 ENE 13 19 7 10 - - 0.0
01/03:40pm 25.6 26.8 20.0 71 3.7 E 13 17 7 9 - - 0.0
01/03:30pm 25.8 27.4 19.9 70 3.9 E 11 17 6 9 - - 0.0
01/03:20pm 25.8 27.4 19.9 70 3.9 E 11 17 6 9 - - 0.0
01/03:10pm 26.3 27.9 19.9 68 4.2 E 11 15 6 8 - - 0.0
01/03:00pm 26.4 27.8 19.6 66 4.5 E 11 15 6 8 - - 0.0
01/02:50pm 26.6 28.0 19.6 65 4.6 E 11 19 6 10 - - 0.0
01/02:40pm 26.5 28.0 19.7 66 4.5 E 11 15 6 8 - - 0.0
01/02:30pm 26.6 27.6 19.5 65 4.7 E 13 17 7 9 - - 0.0
01/02:20pm 26.7 27.7 19.5 64 4.8 E 13 15 7 8 - - 0.0
01/02:10pm 27.9 29.4 19.8 61 5.4 E 11 17 6 9 - - 0.0
01/02:00pm 29.0 31.3 19.4 56 6.4 ENE 6 13 3 7 - - 0.0
01/01:50pm 28.9 30.0 17.2 49 7.5 NNW 7 13 4 7 - - 0.0
01/01:40pm 28.5 30.0 17.6 51 7.0 W 6 11 3 6 - - 0.0
01/01:30pm 28.3 28.5 17.6 52 6.9 W 13 20 7 11 - - 0.0
01/01:20pm 27.8 29.1 17.2 52 6.8 NNE 6 13 3 7 - - 0.0
01/01:10pm 27.8 29.4 17.8 54 6.5 NNW 6 9 3 5 - - 0.0
01/01:00pm 27.9 28.9 17.7 53 6.6 NNW 9 13 5 7 - - 0.0
01/12:50pm 27.5 28.6 18.0 56 6.2 NNW 9 15 5 8 - - 0.0
01/12:40pm 27.1 27.7 17.7 56 6.1 NW 11 15 6 8 - - 0.0
01/12:30pm 27.5 28.3 17.4 54 6.5 NW 9 13 5 7 - - 0.0
01/12:20pm 27.2 27.7 17.4 55 6.3 WNW 11 19 6 10 - - 0.0
01/12:10pm 26.4 27.8 17.9 59 5.5 ENE 7 9 4 5 - - 0.0

Other formats

Comma delimited format used in spreadsheet applications
http://www.bom.gov.au/fwo/IDQ60801/IDQ60801.99123.axf

JavaScript Object Notation format (JSON) in row-major order
http://www.bom.gov.au/fwo/IDQ60801/IDQ60801.99123.json

Data quality

Most of these data are generated automatically and are frequently updated. Quality checks on data are not normally performed. It is possible for incorrect values to appear. Refer to information at About Latest Weather Observations and please check the disclaimer before using these data.